Time;durP1;ratioP1;P1;durP2;ratioP2;P2;SDS_P1;SDS_P2;PMS_P1;PMS_P2;Temp;Humidity;BMP_temperature;BMP_pressure;BME280_temperature;BME280_humidity;BME280_pressure;Samples;Min_cycle;Max_cycle;Signal;HPM_P1;HPM_P2
2021/12/03 00:01:34;;;;;;;31.40;19.87;;;;;;;-1.24;100.00;100936.63;5258291;28;20021;-71
2021/12/03 00:04:06;;;;;;;29.80;19.00;;;;;;;-1.22;100.00;100942.69;5266598;28;20036;-76
2021/12/03 00:06:38;;;;;;;30.37;20.00;;;;;;;-1.25;100.00;100937.44;5278910;28;20052;-70
2021/12/03 00:09:09;;;;;;;35.35;20.95;;;;;;;-1.23;100.00;100935.81;5270178;28;20079;-71
2021/12/03 00:11:41;;;;;;;37.90;21.13;;;;;;;-1.24;100.00;100943.41;5257764;28;20037;-71
2021/12/03 00:14:12;;;;;;;33.33;20.30;;;;;;;-1.27;100.00;100939.09;5259471;28;20396;-72
2021/12/03 00:16:43;;;;;;;38.53;21.93;;;;;;;-1.29;100.00;100936.47;5258056;28;20117;-73
2021/12/03 00:19:15;;;;;;;38.53;20.53;;;;;;;-1.31;100.00;100940.63;5268369;28;20758;-71
2021/12/03 00:21:46;;;;;;;42.00;22.43;;;;;;;-1.31;100.00;100942.31;5278786;28;20111;-73
2021/12/03 00:24:18;;;;;;;35.70;21.97;;;;;;;-1.37;100.00;100945.53;5268387;28;20075;-71
2021/12/03 00:26:49;;;;;;;36.43;22.00;;;;;;;-1.35;100.00;100951.56;5257962;28;20571;-73
2021/12/03 00:29:20;;;;;;;43.63;23.53;;;;;;;-1.36;100.00;100943.84;5257410;28;20111;-77
2021/12/03 00:31:52;;;;;;;41.07;25.70;;;;;;;-1.34;100.00;100942.19;5240792;28;20466;-72
2021/12/03 00:34:26;;;;;;;44.10;26.17;;;;;;;-1.33;100.00;100949.94;5257286;28;20380;-77
2021/12/03 00:36:58;;;;;;;41.47;25.70;;;;;;;-1.34;100.00;100942.19;5278817;28;20023;-75
2021/12/03 00:39:29;;;;;;;41.43;25.07;;;;;;;-1.43;100.00;100952.06;5268039;28;20044;-77
2021/12/03 00:42:03;;;;;;;40.63;26.03;;;;;;;-1.44;100.00;100955.47;5255617;28;20032;-71
2021/12/03 00:44:34;;;;;;;49.67;27.13;;;;;;;-1.49;100.00;100945.91;5257386;28;20479;-70
2021/12/03 00:47:05;;;;;;;44.77;27.33;;;;;;;-1.52;100.00;100943.22;5278031;28;20027;-72
2021/12/03 00:49:39;;;;;;;44.33;28.43;;;;;;;-1.44;100.00;100946.09;5263541;28;20033;-74
2021/12/03 00:52:10;;;;;;;57.50;30.00;;;;;;;-1.41;100.00;100950.47;5257416;28;20123;-70
2021/12/03 00:54:42;;;;;;;55.63;32.37;;;;;;;-1.41;100.00;100951.31;5257223;28;20021;-72
2021/12/03 00:57:13;;;;;;;64.13;35.47;;;;;;;-1.34;100.00;100947.31;5262549;28;20024;-71
2021/12/03 00:59:45;;;;;;;58.60;37.23;;;;;;;-1.37;100.00;100957.44;5277511;28;20079;-73
2021/12/03 01:02:17;;;;;;;60.37;36.57;;;;;;;-1.32;100.00;100959.34;5280063;28;20040;-70
2021/12/03 01:04:49;;;;;;;62.85;36.97;;;;;;;-1.36;100.00;100956.63;5285491;28;20035;-69
2021/12/03 01:07:20;;;;;;;73.27;40.73;;;;;;;-1.34;100.00;100960.09;5278937;28;20029;-71
2021/12/03 01:09:52;;;;;;;73.50;42.27;;;;;;;-1.27;100.00;100954.44;5257748;28;20096;-72
2021/12/03 01:12:23;;;;;;;74.43;44.07;;;;;;;-1.21;100.00;100959.75;5261920;28;20035;-68
2021/12/03 01:14:55;;;;;;;73.50;42.70;;;;;;;-1.16;100.00;100965.94;5277794;28;20035;-73
2021/12/03 01:17:26;;;;;;;71.30;43.40;;;;;;;-1.18;100.00;100959.88;5273037;28;20321;-70
2021/12/03 01:19:59;;;;;;;75.20;45.93;;;;;;;-1.22;100.00;100964.81;5256650;28;20025;-71
2021/12/03 01:22:31;;;;;;;79.82;44.58;;;;;;;-1.23;100.00;100965.63;5260472;28;20030;-73
2021/12/03 01:25:04;;;;;;;80.27;46.00;;;;;;;-1.23;100.00;100965.63;5276799;28;20024;-72
2021/12/03 01:27:36;;;;;;;63.45;42.30;;;;;;;-1.20;100.00;100971.72;5273151;28;20392;-73
2021/12/03 01:30:10;;;;;;;80.30;42.88;;;;;;;-1.29;100.00;100973.94;5256392;28;20033;-70
2021/12/03 01:32:42;;;;;;;70.28;41.35;;;;;;;-1.31;100.00;100975.56;5256982;28;20033;-70
2021/12/03 01:35:14;;;;;;;66.95;42.25;;;;;;;-1.32;100.00;100972.16;5256666;28;20388;-71
2021/12/03 01:37:49;;;;;;;73.40;43.72;;;;;;;-1.30;100.00;100978.19;5263017;28;20039;-69
2021/12/03 01:40:23;;;;;;;68.28;40.13;;;;;;;-1.31;100.00;100985.81;5275384;28;20036;-72
2021/12/03 01:42:55;;;;;;;70.25;41.60;;;;;;;-1.29;100.00;100968.81;5276938;28;20028;-71
2021/12/03 01:45:31;;;;;;;64.07;39.55;;;;;;;-1.24;100.00;100975.00;5269188;28;20036;-72
2021/12/03 01:48:04;;;;;;;72.43;39.75;;;;;;;-1.21;100.00;100961.44;5256106;28;20060;-70
2021/12/03 01:50:40;;;;;;;85.05;42.88;;;;;;;-1.21;100.00;100959.75;5257051;28;20040;-69
2021/12/03 01:53:14;;;;;;;64.68;41.28;;;;;;;-1.16;100.00;100958.25;5256504;28;20033;-70
2021/12/03 01:55:47;;;;;;;73.43;42.28;;;;;;;-1.14;100.00;100951.50;5253129;28;20315;-78
2021/12/03 01:58:18;;;;;;;81.03;47.15;;;;;;;-1.02;100.00;100955.34;5276775;28;20024;-72
2021/12/03 02:00:58;;;;;;;99.77;51.50;;;;;;;-0.99;100.00;100948.63;5260315;28;20027;-77
2021/12/03 02:03:32;;;;;;;101.35;53.97;;;;;;;-0.90;100.00;100952.34;5255399;28;20070;-77
2021/12/03 02:06:05;;;;;;;111.50;52.65;;;;;;;-0.82;100.00;100958.59;5271924;28;20101;-71
2021/12/03 02:08:37;;;;;;;128.70;61.00;;;;;;;-0.79;100.00;100964.72;5258147;28;20035;-75
2021/12/03 02:11:11;;;;;;;137.85;61.28;;;;;;;-0.76;100.00;100967.41;5260516;28;20055;-71
2021/12/03 02:13:42;;;;;;;143.55;64.70;;;;;;;-0.74;100.00;100978.56;5260881;28;20113;-73
2021/12/03 02:16:15;;;;;;;140.30;65.73;;;;;;;-0.66;100.00;100965.16;5277688;28;20438;-69
2021/12/03 02:18:47;;;;;;;160.80;66.38;;;;;;;-0.63;100.00;100975.50;5277290;28;20060;-74
2021/12/03 02:21:19;;;;;;;170.15;71.88;;;;;;;-0.63;100.00;100975.50;5276134;28;20169;-72
2021/12/03 02:23:52;;;;;;;210.93;71.95;;;;;;;-0.64;100.00;100976.34;5277142;28;20418;-72
2021/12/03 02:26:23;;;;;;;183.88;74.43;;;;;;;-0.58;100.00;100974.88;5258415;28;20041;-71
2021/12/03 02:28:55;;;;;;;202.27;76.73;;;;;;;-0.57;100.00;100970.63;5255911;28;20468;-71
2021/12/03 02:31:26;;;;;;;175.80;66.93;;;;;;;-0.51;100.00;100959.72;5272466;28;20126;-72
2021/12/03 02:33:58;;;;;;;178.70;66.67;;;;;;;-0.52;100.00;100963.97;5276335;28;20021;-75
2021/12/03 02:36:29;;;;;;;168.47;68.53;;;;;;;-0.49;100.00;100963.22;5259522;28;20066;-71
2021/12/03 02:39:01;;;;;;;163.33;66.67;;;;;;;-0.48;100.00;100955.56;5265046;28;20029;-72
2021/12/03 02:41:32;;;;;;;153.47;69.47;;;;;;;-0.43;100.00;100961.72;5275860;28;20044;-71
2021/12/03 02:44:04;;;;;;;130.83;61.30;;;;;;;-0.37;100.00;100961.94;5265871;28;20040;-75
2021/12/03 02:46:37;;;;;;;126.13;59.03;;;;;;;-0.34;100.00;100955.16;5259196;28;20051;-73
2021/12/03 02:49:13;;;;;;;137.50;60.65;;;;;;;-0.35;100.00;100954.31;5276036;28;20028;-72
2021/12/03 02:51:45;;;;;;;110.97;57.50;;;;;;;-0.35;100.00;100948.28;5270792;28;20408;-70
2021/12/03 02:54:16;;;;;;;103.47;53.03;;;;;;;-0.34;100.00;100947.50;5236864;28;20052;-78
2021/12/03 02:56:48;;;;;;;102.00;51.67;;;;;;;-0.35;100.00;100950.84;5259396;28;20111;-76
2021/12/03 02:59:19;;;;;;;103.13;52.60;;;;;;;-0.33;100.00;100949.25;5271014;28;20052;-71
2021/12/03 03:01:50;;;;;;;105.70;53.23;;;;;;;-0.35;100.00;100944.06;5255000;28;20549;-71
2021/12/03 03:04:22;;;;;;;103.70;48.33;;;;;;;-0.34;100.00;100947.50;5269092;28;20035;-73
2021/12/03 03:06:53;;;;;;;98.77;51.40;;;;;;;-0.33;100.00;100944.13;5275647;28;20488;-69
2021/12/03 03:09:25;;;;;;;98.33;52.47;;;;;;;-0.36;100.00;100939.75;5261638;28;20079;-74
2021/12/03 03:11:57;;;;;;;104.27;52.57;;;;;;;-0.35;100.00;100941.50;5257610;28;20045;-74
2021/12/03 03:14:29;;;;;;;100.57;52.55;;;;;;;-0.38;100.00;100939.69;5272610;28;20355;-78
2021/12/03 03:17:00;;;;;;;93.60;48.40;;;;;;;-0.35;100.00;100936.38;5279538;28;20333;-74
2021/12/03 03:19:31;;;;;;;116.73;54.20;;;;;;;-0.32;100.00;100935.59;5265325;28;20041;-69
2021/12/03 03:22:03;;;;;;;118.77;53.70;;;;;;;-0.32;100.00;100923.69;5260119;28;20053;-71
2021/12/03 03:24:35;;;;;;;120.13;54.87;;;;;;;-0.31;100.00;100927.09;5261359;28;20064;-72
2021/12/03 03:27:08;;;;;;;109.53;55.38;;;;;;;-0.27;100.00;100937.50;5258923;28;20025;-75
2021/12/03 03:29:41;;;;;;;114.57;56.03;;;;;;;-0.25;100.00;100938.44;5276235;28;20031;-78
2021/12/03 03:32:13;;;;;;;127.65;58.40;;;;;;;-0.26;100.00;100940.94;5279187;28;20099;-70
2021/12/03 03:34:45;;;;;;;120.55;57.45;;;;;;;-0.26;100.00;100946.94;5260460;28;20037;-75
2021/12/03 03:37:18;;;;;;;120.87;54.57;;;;;;;-0.20;100.00;100944.56;5258540;28;20055;-74
2021/12/03 03:39:54;;;;;;;119.80;54.00;;;;;;;-0.21;100.00;100947.06;5260296;28;20029;-73
2021/12/03 03:42:26;;;;;;;103.82;51.60;;;;;;;-0.19;100.00;100948.03;5262078;28;20166;-72
2021/12/03 03:44:57;;;;;;;90.40;50.43;;;;;;;-0.21;100.00;100944.50;5280624;28;20147;-71
2021/12/03 03:47:29;;;;;;;122.37;54.00;;;;;;;-0.23;100.00;100941.91;5278278;28;20498;-70
2021/12/03 03:50:00;;;;;;;111.97;52.20;;;;;;;-0.21;100.00;100944.50;5260136;28;20112;-73
2021/12/03 03:52:34;;;;;;;111.70;51.83;;;;;;;-0.13;100.00;100926.84;5261461;28;20025;-72
2021/12/03 03:55:08;;;;;;;124.22;55.53;;;;;;;-0.17;100.00;100936.13;5281102;28;20486;-73
2021/12/03 03:57:41;;;;;;;127.75;56.10;;;;;;;-0.12;100.00;100932.03;5277724;28;20068;-77
2021/12/03 04:00:22;;;;;;;110.30;53.03;;;;;;;-0.14;100.00;100933.66;5260108;28;20049;-73
2021/12/03 04:02:54;;;;;;;114.65;55.80;;;;;;;-0.11;100.00;100930.31;5263086;28;20081;-74
2021/12/03 04:05:26;;;;;;;114.53;54.47;;;;;;;-0.06;100.00;100923.69;5280018;28;20021;-70
2021/12/03 04:07:58;;;;;;;116.47;54.67;;;;;;;-0.07;100.00;100917.66;5276492;28;20028;-75
2021/12/03 04:10:29;;;;;;;108.20;53.63;;;;;;;-0.02;100.00;100920.38;5259962;28;20021;-78
2021/12/03 04:13:01;;;;;;;111.47;53.83;;;;;;;-0.03;100.00;100911.81;5261698;28;20028;-71
2021/12/03 04:15:33;;;;;;;106.03;48.27;;;;;;;-0.02;100.00;100902.44;5279179;28;20116;-73
2021/12/03 04:18:05;;;;;;;102.27;48.27;;;;;;;0.01;100.00;100899.97;5277205;28;20103;-74
2021/12/03 04:20:36;;;;;;;93.77;47.27;;;;;;;0.11;100.00;100894.34;5241323;28;20029;-71
2021/12/03 04:23:08;;;;;;;92.50;49.47;;;;;;;0.03;100.00;100903.44;5258803;28;20029;-73
2021/12/03 04:25:40;;;;;;;90.97;46.00;;;;;;;0.05;100.00;100912.06;5259934;28;20063;-77
2021/12/03 04:28:12;;;;;;;95.10;47.07;;;;;;;0.06;100.00;100910.38;5270916;28;20032;-78
2021/12/03 04:30:44;;;;;;;97.60;47.22;;;;;;;0.05;100.00;100912.06;5262561;28;20375;-71
2021/12/03 04:33:15;;;;;;;90.55;48.83;;;;;;;0.08;100.00;100913.84;5269106;28;20041;-72
2021/12/03 04:35:47;;;;;;;95.80;48.43;;;;;;;0.08;100.00;100903.59;5260469;28;20021;-71
2021/12/03 04:38:19;;;;;;;98.00;49.17;;;;;;;0.09;100.00;100905.34;5270238;28;20028;-75
2021/12/03 04:40:51;;;;;;;86.67;49.80;;;;;;;0.10;100.00;100907.97;5280288;28;20040;-72
2021/12/03 04:43:22;;;;;;;96.23;50.17;;;;;;;0.10;100.00;100914.78;5268374;28;20036;-72
2021/12/03 04:45:54;;;;;;;79.47;47.17;;;;;;;0.09;100.00;100931.84;5259055;28;20044;-74
2021/12/03 04:48:26;;;;;;;100.40;50.13;;;;;;;0.12;100.00;100916.56;5269294;28;20490;-75
2021/12/03 04:50:58;;;;;;;83.03;46.60;;;;;;;0.13;100.00;100922.56;5280016;28;20472;-73
2021/12/03 04:53:33;;;;;;;91.28;46.00;;;;;;;0.12;100.00;100918.25;5271263;28;20037;-75
2021/12/03 04:56:05;;;;;;;87.10;47.35;;;;;;;0.12;100.00;100910.56;5258233;28;20029;-72
2021/12/03 04:58:37;;;;;;;78.13;42.83;;;;;;;0.09;100.00;100918.16;5274601;28;20034;-78
2021/12/03 05:01:09;;;;;;;79.65;44.90;;;;;;;0.11;100.00;100909.72;5279640;28;20475;-75
2021/12/03 05:03:40;;;;;;;73.07;42.53;;;;;;;0.12;100.00;100910.56;5263296;28;20079;-73
2021/12/03 05:06:16;;;;;;;71.73;42.30;;;;;;;0.08;100.00;100893.34;5259549;28;20036;-71
2021/12/03 05:08:47;;;;;;;62.78;39.72;;;;;;;0.09;100.00;100892.53;5259058;28;20051;-73
2021/12/03 05:11:19;;;;;;;65.53;38.40;;;;;;;0.10;100.00;100900.28;5258986;28;20033;-74
2021/12/03 05:13:50;;;;;;;54.33;38.27;;;;;;;0.11;100.00;100883.19;5275700;28;20087;-73
2021/12/03 05:16:22;;;;;;;57.70;34.50;;;;;;;0.13;100.00;100889.22;5281633;28;20024;-79
2021/12/03 05:18:53;;;;;;;62.50;34.27;;;;;;;0.08;100.00;100875.41;5264670;28;20033;-76
2021/12/03 05:21:25;;;;;;;55.23;29.60;;;;;;;0.08;100.00;100880.53;5260435;28;20040;-73
2021/12/03 05:23:56;;;;;;;54.87;32.13;;;;;;;0.09;100.00;100872.88;5274402;28;20115;-72
2021/12/03 05:26:28;;;;;;;46.33;28.03;;;;;;;0.05;100.00;100872.75;5279381;28;20372;-77
2021/12/03 05:28:59;;;;;;;50.53;27.60;;;;;;;0.06;100.00;100882.19;5263850;28;20044;-75
2021/12/03 05:31:31;;;;;;;44.97;26.70;;;;;;;0.04;100.00;100876.16;5274197;28;20415;-71
2021/12/03 05:34:04;;;;;;;47.87;26.37;;;;;;;0.06;100.00;100887.31;5261611;28;20033;-79
2021/12/03 05:36:37;;;;;;;48.10;25.52;;;;;;;0.09;100.00;100887.41;5256530;28;20428;-72
2021/12/03 05:39:08;;;;;;;43.65;22.92;;;;;;;0.04;100.00;100894.94;5272971;28;20028;-73
2021/12/03 05:41:40;;;;;;;35.00;22.60;;;;;;;0.03;100.00;100900.88;5279454;28;20042;-72
2021/12/03 05:44:13;;;;;;;35.10;21.90;;;;;;;0.03;100.00;100895.75;5257854;28;20029;-74
2021/12/03 05:46:44;;;;;;;38.97;21.65;;;;;;;0.02;100.00;100895.72;5256490;28;20275;-71
2021/12/03 05:49:16;;;;;;;38.30;20.40;;;;;;;0.02;100.00;100895.72;5275258;28;20036;-75
2021/12/03 05:51:48;;;;;;;44.03;20.83;;;;;;;0.02;100.00;100905.97;5277372;28;20448;-72
2021/12/03 05:54:20;;;;;;;33.60;19.33;;;;;;;0.02;100.00;100904.28;5257214;28;20116;-72
2021/12/03 05:56:52;;;;;;;38.22;20.70;;;;;;;0.01;100.00;100904.25;5255527;28;20037;-74
2021/12/03 05:59:23;;;;;;;40.20;18.77;;;;;;;-0.01;100.00;100894.78;5274383;28;20102;-72
2021/12/03 06:01:54;;;;;;;41.77;19.53;;;;;;;-0.01;100.00;100904.19;5276587;28;20032;-78
2021/12/03 06:04:27;;;;;;;37.63;19.23;;;;;;;0.01;100.00;100897.41;5256964;28;20029;-77
2021/12/03 06:06:58;;;;;;;;;;;;;;;0.02;100.00;100900.84;5255923;28;20016;-72
2021/12/03 06:09:30;;;;;;;38.60;17.42;;;;;;;0.00;100.00;100895.69;5274159;28;19977;-71
2021/12/03 06:12:02;;;;;;;33.10;16.10;;;;;;;0.07;100.00;100895.03;5275904;28;20177;-74
2021/12/03 06:14:33;;;;;;;27.30;15.57;;;;;;;0.10;100.00;100894.28;5257227;28;20060;-72
2021/12/03 06:17:05;;;;;;;37.10;15.93;;;;;;;0.08;100.00;100877.97;5255585;28;20025;-73
2021/12/03 06:19:36;;;;;;;46.90;16.03;;;;;;;0.06;100.00;100883.03;5255553;28;20028;-78
2021/12/03 06:22:08;;;;;;;35.67;15.73;;;;;;;0.08;100.00;100880.53;5261159;28;20040;-77
2021/12/03 06:24:40;;;;;;;34.78;15.85;;;;;;;0.11;100.00;100878.06;5275842;28;20480;-77
2021/12/03 06:27:11;;;;;;;37.10;16.53;;;;;;;0.10;100.00;100886.59;5269184;28;20040;-70
2021/12/03 06:29:43;;;;;;;27.73;14.40;;;;;;;0.10;100.00;100878.91;5259241;28;20032;-73
2021/12/03 06:32:14;;;;;;;35.10;14.17;;;;;;;0.12;100.00;100870.44;5275819;28;20114;-73
2021/12/03 06:34:45;;;;;;;32.87;14.10;;;;;;;0.09;100.00;100865.19;5271609;28;20490;-76
2021/12/03 06:37:17;;;;;;;32.07;12.37;;;;;;;0.12;100.00;100877.25;5255562;28;20036;-71
2021/12/03 06:39:48;;;;;;;27.00;12.50;;;;;;;0.14;100.00;100870.47;5258900;28;20108;-73
2021/12/03 06:42:19;;;;;;;22.70;11.53;;;;;;;0.18;100.00;100869.75;5275767;28;20039;-73
2021/12/03 06:44:51;;;;;;;19.10;9.77;;;;;;;0.17;100.00;100875.69;5272209;28;20024;-78
2021/12/03 06:47:22;;;;;;;29.80;10.17;;;;;;;0.17;100.00;100868.00;5255819;28;20036;-76
2021/12/03 06:49:54;;;;;;;23.00;10.83;;;;;;;0.15;100.00;100873.09;5259659;28;20038;-72
2021/12/03 06:52:25;;;;;;;26.77;10.53;;;;;;;0.16;100.00;100879.97;5276803;28;20056;-76
2021/12/03 06:55:00;;;;;;;27.40;11.80;;;;;;;0.13;100.00;100872.19;5262028;28;20033;-74
2021/12/03 06:57:31;;;;;;;23.17;10.70;;;;;;;0.12;100.00;100875.56;5255344;28;20750;-78
2021/12/03 07:00:04;;;;;;;27.27;10.50;;;;;;;0.11;100.00;100876.41;5269217;28;20056;-78
2021/12/03 07:02:36;;;;;;;31.15;13.15;;;;;;;0.10;100.00;100884.91;5276050;28;20525;-73
2021/12/03 07:05:08;;;;;;;21.77;11.17;;;;;;;0.09;100.00;100883.13;5243760;28;20033;-77
2021/12/03 07:07:41;;;;;;;29.33;10.93;;;;;;;0.10;99.98;100884.03;5255894;28;20429;-79
2021/12/03 07:10:12;;;;;;;29.42;11.30;;;;;;;0.10;99.58;100874.63;5269228;28;20376;-77
2021/12/03 07:12:43;;;;;;;28.53;11.33;;;;;;;0.11;99.25;100872.94;5275896;28;20029;-72
2021/12/03 07:15:15;;;;;;;26.00;10.50;;;;;;;0.10;99.20;100876.34;5261224;28;20037;-72
2021/12/03 07:17:50;;;;;;;27.67;9.97;;;;;;;0.11;99.44;100881.53;5256271;28;20033;-80
2021/12/03 07:20:24;;;;;;;20.70;8.90;;;;;;;0.12;98.66;100872.13;5254681;28;20762;-77
2021/12/03 07:22:56;;;;;;;28.45;10.25;;;;;;;0.12;98.20;100861.88;5261105;28;20387;-79
2021/12/03 07:25:27;;;;;;;28.57;9.40;;;;;;;0.14;98.68;100860.22;5260257;28;20082;-74
2021/12/03 07:27:59;;;;;;;21.00;10.83;;;;;;;0.13;98.67;100853.34;5260657;28;20232;-71
2021/12/03 07:30:31;;;;;;;26.00;11.00;;;;;;;0.13;98.27;100843.09;5273001;28;20070;-75
2021/12/03 07:33:03;;;;;;;16.42;8.18;;;;;;;0.14;97.85;100847.41;5253469;28;20182;-77
2021/12/03 07:35:34;;;;;;;31.90;11.10;;;;;;;0.16;97.57;100849.19;5253581;28;20120;-76
2021/12/03 07:38:06;;;;;;;27.40;8.20;;;;;;;0.16;97.20;100849.19;5259020;28;20071;-77
2021/12/03 07:40:38;;;;;;;28.83;10.73;;;;;;;0.15;97.21;100856.84;5278899;28;20017;-74
2021/12/03 07:43:10;;;;;;;;;;;;;;;0.20;97.79;100854.44;5260299;28;20496;-73
2021/12/03 07:45:42;;;;;;;19.98;8.73;;;;;;;0.18;97.59;100864.63;5259772;28;19916;-73
2021/12/03 07:48:14;;;;;;;21.50;8.87;;;;;;;0.22;97.59;100857.91;5265094;28;20086;-76
2021/12/03 07:50:45;;;;;;;32.97;10.17;;;;;;;0.26;97.68;100852.03;5280894;28;20082;-76
2021/12/03 07:53:18;;;;;;;27.00;9.23;;;;;;;0.25;97.74;100843.47;5268205;28;20087;-78
2021/12/03 07:55:53;;;;;;;23.27;9.98;;;;;;;0.26;97.76;100850.34;5262408;28;20084;-75
2021/12/03 07:58:25;;;;;;;23.20;8.68;;;;;;;0.31;97.58;100842.81;5268424;28;20032;-76
2021/12/03 08:00:57;;;;;;;26.00;9.10;;;;;;;0.33;97.12;100838.56;5268080;28;20516;-76
2021/12/03 08:03:29;;;;;;;25.58;8.63;;;;;;;0.38;97.02;100846.41;5269122;28;20024;-78
2021/12/03 08:06:07;;;;;;;23.90;9.00;;;;;;;0.36;96.90;100847.22;5266473;28;20029;-82
2021/12/03 08:08:39;;;;;;;32.05;9.70;;;;;;;0.41;97.25;100849.94;5265010;28;20121;-74
2021/12/03 08:11:11;;;;;;;26.23;8.45;;;;;;;0.43;96.83;100849.97;5264345;28;20099;-77
2021/12/03 08:13:42;;;;;;;31.13;10.60;;;;;;;0.46;96.68;100840.66;5264728;28;20499;-72
2021/12/03 08:16:14;;;;;;;21.33;8.10;;;;;;;0.45;97.10;100848.31;5244933;28;20476;-75
2021/12/03 08:18:45;;;;;;;32.20;8.40;;;;;;;0.48;97.09;100846.72;5245529;28;20032;-75
2021/12/03 08:21:17;;;;;;;30.87;8.80;;;;;;;0.53;96.71;100837.47;5272196;28;20433;-72
2021/12/03 08:23:49;;;;;;;26.30;7.93;;;;;;;0.56;96.60;100830.69;5286240;28;20036;-75
2021/12/03 08:26:20;;;;;;;28.50;7.67;;;;;;;0.58;96.39;100842.75;5286902;28;20764;-73
2021/12/03 08:28:55;;;;;;;21.37;6.43;;;;;;;0.64;95.92;100837.75;5287162;28;20036;-74
2021/12/03 08:31:26;;;;;;;25.65;7.72;;;;;;;0.67;96.01;100839.56;5284015;28;20399;-77
2021/12/03 08:33:58;;;;;;;20.93;7.73;;;;;;;0.71;95.87;100843.97;5282123;28;20046;-73
2021/12/03 08:36:29;;;;;;;21.47;7.03;;;;;;;0.77;95.66;100843.25;5263760;28;20090;-76
2021/12/03 08:39:01;;;;;;;26.87;7.03;;;;;;;0.81;95.50;100845.09;5261497;28;20029;-73
2021/12/03 08:41:34;;;;;;;30.27;7.77;;;;;;;0.84;94.85;100840.91;5280526;28;20025;-75
2021/12/03 08:44:06;;;;;;;23.95;6.90;;;;;;;0.84;94.81;100845.19;5283619;28;20032;-71
2021/12/03 08:46:38;;;;;;;20.57;7.13;;;;;;;0.86;95.01;100838.38;5265113;28;20025;-78
2021/12/03 08:49:26;;;;;;;22.90;6.50;;;;;;;0.86;94.96;100851.22;5247345;28;20032;-77
2021/12/03 08:57:29;;;;;;;30.27;7.30;;;;;;;0.98;94.50;100833.56;5257485;28;20061;-81
2021/12/03 09:00:10;;;;;;;18.65;6.72;;;;;;;1.08;94.26;100824.44;5256698;28;20057;-72
2021/12/03 09:02:42;;;;;;;24.48;7.72;;;;;;;1.15;93.79;100823.75;5257580;28;20524;-74
2021/12/03 09:05:14;;;;;;;23.92;7.75;;;;;;;1.20;93.45;100814.47;5261824;28;20060;-73
2021/12/03 09:07:45;;;;;;;26.07;8.67;;;;;;;1.20;93.77;100821.31;5271187;28;20024;-77
2021/12/03 09:10:17;;;;;;;25.70;7.50;;;;;;;1.24;93.30;100823.09;5262491;28;20029;-83
2021/12/03 09:12:48;;;;;;;22.13;6.87;;;;;;;1.28;94.00;100836.06;5262978;28;20068;-76
2021/12/03 09:15:33;;;;;;;28.33;7.50;;;;;;;1.35;93.15;100826.81;5265140;28;20057;-82
2021/12/03 09:26:15;;;;;;;18.02;7.22;;;;;;;1.41;93.06;100814.13;5201268;28;20296;-77
2021/12/03 09:28:50;;;;;;;29.20;8.88;;;;;;;1.48;93.00;100798.88;5193347;28;20057;-77
2021/12/03 09:31:22;;;;;;;23.50;8.38;;;;;;;1.54;92.98;100814.44;5197594;28;20034;-77
2021/12/03 09:33:56;;;;;;;27.73;9.10;;;;;;;1.64;92.99;100804.44;5196009;28;20038;-80
2021/12/03 09:36:27;;;;;;;21.58;8.80;;;;;;;1.76;92.63;100813.28;5196333;28;20521;-71
2021/12/03 09:39:00;;;;;;;18.73;7.50;;;;;;;1.81;92.04;100811.69;5194355;28;20050;-73
2021/12/03 09:41:31;;;;;;;;;;;;;;;1.90;91.88;100808.44;5197535;28;20034;-80
2021/12/03 09:44:03;;;;;;;18.23;6.40;;;;;;;1.74;91.85;100814.91;5197011;28;19924;-82
2021/12/03 09:46:35;;;;;;;27.75;7.78;;;;;;;1.76;92.11;100803.84;5196449;28;20132;-75
2021/12/03 09:49:23;;;;;;;16.87;6.60;;;;;;;1.77;92.03;100807.28;5195971;28;20038;-75
2021/12/03 09:52:05;;;;;;;18.35;6.75;;;;;;;1.79;93.13;100790.22;5182657;28;20057;-81
2021/12/03 09:57:44;;;;;;;18.90;6.57;;;;;;;1.91;92.33;100781.91;5205166;28;20102;-72
2021/12/03 10:00:37;;;;;;;;;;;;;;;1.89;92.40;100770.72;5254922;28;20045;-80
2021/12/03 10:14:39;;;;;;;22.30;5.93;;;;;;;1.82;92.76;100755.16;5275236;28;20445;-71
2021/12/03 10:20:11;;;;;;;22.45;6.63;;;;;;;1.92;92.18;100761.38;5266489;28;20044;-75
2021/12/03 10:31:44;;;;;;;19.98;6.07;;;;;;;2.20;91.15;100731.09;5257076;28;20048;-85
2021/12/03 11:19:40;;;;;;;18.42;7.53;;;;;;;2.98;86.40;100633.00;5133788;29;20048;-70
2021/12/03 11:42:02;;;;;;;18.63;7.23;;;;;;;3.45;84.00;100587.31;5135969;29;20050;-73
2021/12/03 12:05:43;;;;;;;12.80;5.32;;;;;;;3.77;80.69;100547.31;5175559;28;20095;-73
2021/12/03 12:19:45;;;;;;;9.23;4.85;;;;;;;3.65;80.04;100527.41;5152885;28;20391;-72
2021/12/03 13:08:02;;;;;;;10.07;4.70;;;;;;;3.84;78.89;100451.97;5097166;29;20112;-73
2021/12/03 14:25:19;;;;;;;8.73;3.60;;;;;;;3.23;86.34;100366.34;5250522;28;20113;-80
2021/12/03 14:46:15;;;;;;;6.57;4.05;;;;;;;3.04;90.13;100375.56;5256731;28;20029;-78
2021/12/03 14:49:52;;;;;;;7.88;3.92;;;;;;;3.03;90.36;100377.28;5258589;28;20092;-73
2021/12/03 14:57:13;;;;;;;10.35;4.90;;;;;;;3.05;91.06;100372.16;5277611;28;20006;-82
2021/12/03 14:59:53;;;;;;;12.40;4.65;;;;;;;3.03;91.35;100372.16;5238010;28;20061;-72
2021/12/03 15:03:12;;;;;;;8.18;3.65;;;;;;;3.01;91.04;100363.53;5215893;28;20048;-84
2021/12/03 15:08:29;;;;;;;9.48;3.92;;;;;;;2.98;91.61;100371.22;5238868;28;20422;-72
2021/12/03 15:19:42;;;;;;;39.70;21.88;;;;;;;2.99;92.36;100372.94;5196368;28;20487;-74
2021/12/03 15:33:44;;;;;;;15.50;8.00;;;;;;;2.94;94.50;100358.31;5226601;28;20042;-77
2021/12/03 15:36:29;;;;;;;19.85;11.38;;;;;;;2.84;95.97;100355.63;5219087;28;20053;-75
2021/12/03 15:39:16;;;;;;;14.77;7.05;;;;;;;2.79;96.66;100346.97;5235128;28;20032;-76
2021/12/03 15:58:37;;;;;;;9.68;5.78;;;;;;;2.64;100.00;100328.75;5164247;28;20035;-73
2021/12/03 16:04:09;;;;;;;12.70;6.47;;;;;;;2.66;100.00;100327.09;5200664;28;19917;-74
2021/12/03 16:54:09;;;;;;;7.50;5.82;;;;;;;2.57;100.00;100278.09;5235121;28;20041;-76
2021/12/03 16:56:53;;;;;;;9.38;6.13;;;;;;;2.57;100.00;100273.78;5238892;28;20070;-77
2021/12/03 16:59:25;;;;;;;7.70;6.28;;;;;;;2.57;100.00;100272.94;5233693;28;20037;-85
2021/12/03 17:02:03;;;;;;;7.53;5.47;;;;;;;2.59;100.00;100273.81;5260290;28;20029;-80
2021/12/03 17:05:02;;;;;;;7.80;6.10;;;;;;;2.56;100.00;100279.81;5267577;28;20039;-78
2021/12/03 17:10:46;;;;;;;7.63;5.97;;;;;;;2.59;100.00;100272.09;5283883;28;20037;-81
2021/12/03 17:58:08;;;;;;;78.38;43.70;;;;;;;2.54;100.00;100181.13;5260084;28;20037;-77
2021/12/03 18:00:55;;;;;;;23.92;15.65;;;;;;;2.55;100.00;100186.28;5257199;28;20036;-76
2021/12/03 18:50:59;;;;;;;6.17;5.47;;;;;;;2.72;100.00;100154.72;5214804;28;20071;-69
2021/12/03 18:53:47;;;;;;;8.95;6.07;;;;;;;2.71;100.00;100148.72;5266467;28;20024;-73
2021/12/03 18:56:20;;;;;;;5.78;5.18;;;;;;;2.69;100.00;100147.84;5274839;28;20388;-72
2021/12/03 18:58:58;;;;;;;9.48;6.47;;;;;;;2.69;100.00;100163.28;5261333;28;20059;-74
2021/12/03 19:01:31;;;;;;;6.90;5.72;;;;;;;2.72;100.00;100158.16;5247841;28;20041;-78
2021/12/03 19:04:20;;;;;;;6.32;5.72;;;;;;;2.71;100.00;100168.44;5264897;28;20032;-78
2021/12/03 19:06:59;;;;;;;6.55;5.63;;;;;;;2.71;100.00;100163.28;5275288;28;20846;-73
2021/12/03 19:09:51;;;;;;;6.80;6.10;;;;;;;2.72;100.00;100160.75;5256992;28;20025;-72
2021/12/03 19:12:28;;;;;;;8.43;7.53;;;;;;;2.72;100.00;100159.84;5258037;28;20024;-74
2021/12/03 19:15:01;;;;;;;9.55;8.65;;;;;;;2.73;100.00;100153.88;5275488;28;20107;-74
2021/12/03 19:17:37;;;;;;;9.98;8.98;;;;;;;2.71;100.00;100147.84;5269871;28;20051;-73
2021/12/03 19:20:14;;;;;;;11.00;9.90;;;;;;;2.71;100.00;100148.72;5255082;28;20033;-76
2021/12/03 19:22:46;;;;;;;11.57;10.32;;;;;;;2.72;100.00;100139.25;5261130;28;20060;-72
2021/12/03 19:25:17;;;;;;;11.40;10.20;;;;;;;2.70;100.00;100134.09;5276019;28;20512;-76
2021/12/03 19:27:49;;;;;;;10.97;9.87;;;;;;;2.72;100.00;100132.44;5269226;28;20112;-74